createdAt,value
2023-03-12T06:52:10.510Z,7.40
2023-03-12T06:55:12.246Z,7.30
2023-03-12T06:58:13.958Z,7.40
2023-03-12T07:01:15.956Z,7.40
2023-03-12T07:04:17.781Z,7.50
2023-03-12T07:07:20.087Z,7.50
2023-03-12T07:10:21.847Z,7.60
2023-03-12T07:13:23.736Z,7.70
2023-03-12T07:16:25.531Z,7.80
2023-03-12T07:19:27.562Z,7.80
2023-03-12T07:22:29.312Z,7.80
2023-03-12T07:25:31.104Z,7.90
2023-03-12T07:28:32.778Z,8.00
2023-03-12T07:31:34.681Z,8.00
2023-03-12T07:34:36.561Z,8.00
2023-03-12T07:37:38.313Z,8.10
2023-03-12T07:40:40.123Z,8.10
2023-03-12T07:43:42.043Z,8.10
2023-03-12T07:46:43.738Z,8.20
2023-03-12T07:49:45.764Z,8.20
2023-03-12T07:52:48.029Z,8.30
2023-03-12T07:55:50.308Z,8.30
2023-03-12T07:58:52.771Z,8.30
2023-03-12T08:01:54.855Z,8.40
2023-03-12T08:04:56.721Z,8.50
2023-03-12T08:07:58.403Z,8.60
2023-03-12T08:11:00.358Z,8.70
2023-03-12T08:14:02.270Z,8.80
2023-03-12T08:17:03.956Z,8.90
2023-03-12T08:20:09.751Z,9.00
2023-03-12T08:23:11.464Z,9.00
2023-03-12T08:26:13.393Z,9.20
2023-03-12T08:29:15.629Z,9.20
2023-03-12T08:32:17.397Z,9.20
2023-03-12T08:35:19.164Z,9.30
2023-03-12T08:38:21.256Z,9.40
2023-03-12T08:41:22.921Z,9.50
2023-03-12T08:44:24.707Z,9.60
2023-03-12T08:47:26.364Z,9.60
2023-03-12T08:50:29.346Z,9.70
2023-03-12T08:53:31.554Z,9.80
2023-03-12T08:56:33.270Z,9.80
2023-03-12T08:59:34.927Z,10.00
2023-03-12T09:02:36.919Z,10.10
2023-03-12T09:05:38.558Z,10.10
2023-03-12T09:08:40.917Z,10.20
2023-03-12T09:11:42.823Z,10.30
2023-03-12T09:15:03.007Z,10.40
2023-03-12T09:18:05.716Z,10.50
2023-03-12T09:21:07.454Z,10.50
2023-03-12T09:24:10.076Z,10.60
2023-03-12T09:27:11.811Z,10.70
2023-03-12T09:30:17.112Z,10.70
2023-03-12T09:33:18.890Z,10.80
2023-03-12T09:36:20.604Z,10.80
2023-03-12T09:39:23.506Z,10.70
2023-03-12T09:42:40.851Z,10.80
2023-03-12T09:45:43.647Z,10.80
2023-03-12T09:48:47.441Z,10.90
2023-03-12T09:51:53.991Z,10.90
2023-03-12T09:55:04.616Z,10.90
2023-03-12T09:58:22.946Z,11.00
2023-03-12T10:01:42.024Z,11.10
2023-03-12T10:04:58.864Z,11.30
2023-03-12T10:08:24.729Z,11.30
2023-03-12T10:11:57.365Z,11.40
2023-03-12T10:15:14.165Z,11.40
2023-03-12T10:18:28.491Z,11.40
2023-03-12T10:21:35.498Z,11.40
2023-03-12T10:24:54.476Z,11.50
2023-03-12T10:28:01.113Z,11.50
2023-03-12T10:31:07.672Z,11.50
2023-03-12T10:34:37.474Z,11.50
2023-03-12T10:37:47.123Z,11.60
2023-03-12T10:40:49.093Z,11.70
2023-03-12T10:43:50.843Z,11.70
2023-03-12T10:47:03.489Z,11.90
2023-03-12T10:50:18.883Z,12.00
2023-03-12T10:53:26.359Z,12.20
2023-03-12T10:56:29.492Z,12.30
2023-03-12T10:59:36.023Z,12.40
2023-03-12T11:02:45.716Z,12.30
2023-03-12T11:05:52.236Z,12.30
2023-03-12T11:09:23.361Z,12.30
2023-03-12T11:12:27.292Z,12.30
2023-03-12T11:15:31.892Z,12.30
2023-03-12T11:18:37.397Z,12.30
2023-03-12T11:21:40.358Z,12.30
2023-03-12T11:25:02.050Z,12.30
2023-03-12T11:28:03.894Z,12.30
2023-03-12T11:31:09.513Z,12.50
2023-03-12T11:34:24.984Z,12.50
2023-03-12T11:37:40.472Z,12.50
2023-03-12T11:40:57.241Z,12.50
2023-03-12T11:44:05.254Z,12.50
2023-03-12T11:47:41.985Z,12.50
2023-03-12T11:50:52.529Z,12.50
2023-03-12T11:54:06.895Z,12.60
2023-03-12T11:57:46.062Z,12.80
2023-03-12T12:01:23.535Z,12.90
2023-03-12T12:04:34.073Z,13.00
2023-03-12T12:07:54.025Z,13.10
2023-03-12T12:11:12.458Z,13.20
2023-03-12T12:14:35.499Z,13.30
2023-03-12T12:17:58.611Z,13.20
2023-03-12T12:21:29.666Z,13.30
2023-03-12T12:24:48.766Z,13.30
2023-03-12T12:27:57.628Z,13.30
2023-03-12T12:31:18.548Z,13.20
2023-03-12T12:34:44.496Z,13.30
2023-03-12T12:37:51.363Z,13.30
2023-03-12T12:41:04.151Z,13.30
2023-03-12T12:44:13.980Z,13.40
2023-03-12T12:47:19.019Z,13.40
2023-03-12T12:50:21.704Z,13.50
2023-03-12T12:53:32.892Z,13.60
2023-03-12T12:56:54.536Z,13.70
2023-03-12T13:00:11.290Z,13.70
2023-03-12T13:03:21.113Z,13.80
2023-03-12T13:06:22.786Z,13.70
2023-03-12T13:09:47.936Z,13.60
2023-03-12T13:12:53.819Z,13.90
2023-03-12T13:16:33.321Z,13.90
2023-03-12T13:19:40.609Z,13.70
2023-03-12T13:22:57.972Z,13.60
2023-03-12T13:26:23.835Z,13.60
2023-03-12T13:29:28.554Z,13.70
2023-03-12T13:33:01.591Z,13.70
2023-03-12T13:36:16.739Z,13.70
2023-03-12T13:39:36.582Z,13.80
2023-03-12T13:42:40.079Z,13.90
2023-03-12T13:46:00.924Z,13.90
2023-03-12T13:49:05.488Z,14.10
2023-03-12T13:52:16.693Z,14.00
2023-03-12T13:55:25.249Z,13.90
2023-03-12T13:58:27.110Z,13.90
2023-03-12T14:01:36.099Z,13.90
2023-03-12T14:04:38.822Z,13.90
2023-03-12T14:08:06.377Z,13.90
2023-03-12T14:11:33.624Z,13.80
2023-03-12T14:15:03.300Z,13.70
2023-03-12T14:18:15.205Z,13.60
2023-03-12T14:21:17.112Z,13.60
2023-03-12T14:24:32.314Z,13.50
2023-03-12T14:27:34.094Z,13.40
2023-03-12T14:31:02.386Z,13.30
2023-03-12T14:34:20.968Z,13.30
2023-03-12T14:37:31.587Z,13.10
2023-03-12T14:40:40.579Z,12.90
2023-03-12T14:43:43.034Z,12.80
2023-03-12T14:47:01.850Z,12.50
2023-03-12T14:50:03.929Z,12.30
2023-03-12T14:53:23.674Z,12.00
2023-03-12T14:56:34.753Z,11.90
2023-03-12T14:59:38.946Z,11.90
2023-03-12T15:02:40.913Z,11.80
2023-03-12T15:05:48.781Z,11.70
2023-03-12T15:08:50.450Z,11.70
2023-03-12T15:11:59.863Z,11.70
2023-03-12T15:15:09.869Z,11.70
2023-03-12T15:18:21.255Z,11.70
2023-03-12T15:21:23.192Z,11.70
2023-03-12T15:24:24.863Z,11.50
2023-03-12T15:27:28.648Z,11.50
2023-03-12T15:30:30.749Z,11.40
2023-03-12T15:33:32.707Z,11.40
2023-03-12T15:36:34.647Z,11.30
2023-03-12T15:39:36.805Z,11.30
2023-03-12T15:42:43.577Z,11.30
2023-03-12T15:45:45.606Z,11.30
2023-03-12T15:48:55.166Z,11.30
2023-03-12T15:52:17.984Z,11.10
2023-03-12T15:55:26.080Z,11.10
2023-03-12T15:58:31.721Z,11.10
2023-03-12T16:01:50.445Z,11.10
2023-03-12T16:04:52.409Z,11.00
2023-03-12T16:07:54.119Z,11.00
2023-03-12T16:10:56.342Z,10.90
2023-03-12T16:14:03.729Z,10.90
2023-03-12T16:17:09.493Z,10.80
2023-03-12T16:20:14.694Z,10.80
2023-03-12T16:23:17.795Z,10.80
2023-03-12T16:26:19.694Z,10.70
2023-03-12T16:29:21.684Z,10.70
2023-03-12T16:32:23.470Z,10.60
2023-03-12T16:35:25.438Z,10.60
2023-03-12T16:38:27.383Z,10.60
2023-03-12T16:41:29.089Z,10.50
2023-03-12T16:44:32.365Z,10.50
2023-03-12T16:47:34.466Z,10.40
2023-03-12T16:50:36.325Z,10.40
2023-03-12T16:53:38.558Z,10.40
2023-03-12T16:56:44.957Z,10.40
2023-03-12T16:59:46.645Z,10.30
2023-03-12T17:02:48.794Z,10.30
2023-03-12T17:05:50.537Z,10.30
2023-03-12T17:08:52.383Z,10.30
2023-03-12T17:11:54.397Z,10.20
2023-03-12T17:14:57.317Z,10.20
2023-03-12T17:18:03.278Z,10.10
2023-03-12T17:21:05.255Z,10.10
2023-03-12T17:24:07.250Z,10.00
2023-03-12T17:27:09.021Z,10.00
2023-03-12T17:30:11.469Z,10.00
2023-03-12T17:33:15.218Z,10.00
2023-03-12T17:36:17.406Z,9.90
2023-03-12T17:39:19.094Z,9.90
2023-03-12T22:13:58.272Z,10.80
2023-03-12T22:16:59.933Z,10.90
2023-03-12T22:20:01.603Z,10.90
2023-03-12T22:23:03.261Z,10.90
2023-03-12T22:26:05.570Z,10.90
2023-03-12T22:29:07.992Z,10.90
2023-03-12T22:32:09.634Z,11.00
2023-03-12T22:35:11.375Z,11.00
2023-03-12T22:38:13.018Z,11.00
2023-03-12T22:41:25.204Z,11.00
2023-03-12T22:44:27.158Z,11.10
2023-03-12T22:47:28.839Z,11.10
2023-03-12T22:50:31.185Z,11.10
2023-03-12T22:53:33.204Z,11.10
2023-03-12T22:56:34.926Z,11.10
2023-03-12T22:59:38.158Z,11.10
2023-03-12T23:02:40.276Z,11.10
2023-03-12T23:05:42.089Z,11.10
2023-03-12T23:08:46.279Z,11.10
2023-03-12T23:11:49.178Z,11.10
2023-03-12T23:14:50.939Z,11.10
2023-03-12T23:17:52.575Z,11.10
2023-03-12T23:21:01.158Z,11.10
2023-03-12T23:24:03.088Z,11.10
2023-03-12T23:27:05.075Z,11.10
2023-03-12T23:30:07.395Z,11.10
2023-03-12T23:33:09.368Z,11.10
2023-03-12T23:36:12.992Z,11.10
